地図

経路データ

SID SEASON NUMBER BASIN SUBBASIN NAME ISO_TIME NATURE LAT LON WMO_WIND WMO_PRES WMO_AGENCY TRACK_TYPE DIST2LAND LANDFALL IFLAG USA_AGENCY USA_ATCF_ID USA_LAT USA_LON USA_RECORD USA_STATUS USA_WIND USA_PRES USA_SSHS USA_R34_NE USA_R34_SE USA_R34_SW USA_R34_NW USA_R50_NE USA_R50_SE USA_R50_SW USA_R50_NW USA_R64_NE USA_R64_SE USA_R64_SW USA_R64_NW USA_POCI USA_ROCI USA_RMW USA_EYE TOKYO_LAT TOKYO_LON TOKYO_GRADE TOKYO_WIND TOKYO_PRES TOKYO_R50_DIR TOKYO_R50_LONG TOKYO_R50_SHORT TOKYO_R30_DIR TOKYO_R30_LONG TOKYO_R30_SHORT TOKYO_LAND CMA_LAT CMA_LON CMA_CAT CMA_WIND CMA_PRES HKO_LAT HKO_LON HKO_CAT HKO_WIND HKO_PRES NEWDELHI_LAT NEWDELHI_LON NEWDELHI_GRADE NEWDELHI_WIND NEWDELHI_PRES NEWDELHI_CI NEWDELHI_DP NEWDELHI_POCI REUNION_LAT REUNION_LON REUNION_TYPE REUNION_WIND REUNION_PRES REUNION_TNUM REUNION_CI REUNION_RMW REUNION_R34_NE REUNION_R34_SE REUNION_R34_SW REUNION_R34_NW REUNION_R50_NE REUNION_R50_SE REUNION_R50_SW REUNION_R50_NW REUNION_R64_NE REUNION_R64_SE REUNION_R64_SW REUNION_R64_NW BOM_LAT BOM_LON BOM_TYPE BOM_WIND BOM_PRES BOM_TNUM BOM_CI BOM_RMW BOM_R34_NE BOM_R34_SE BOM_R34_SW BOM_R34_NW BOM_R50_NE BOM_R50_SE BOM_R50_SW BOM_R50_NW BOM_R64_NE BOM_R64_SE BOM_R64_SW BOM_R64_NW BOM_ROCI BOM_POCI BOM_EYE BOM_POS_METHOD BOM_PRES_METHOD NADI_LAT NADI_LON NADI_CAT NADI_WIND NADI_PRES WELLINGTON_LAT WELLINGTON_LON WELLINGTON_WIND WELLINGTON_PRES DS824_LAT DS824_LON DS824_STAGE DS824_WIND DS824_PRES TD9636_LAT TD9636_LON TD9636_STAGE TD9636_WIND TD9636_PRES TD9635_LAT TD9635_LON TD9635_WIND TD9635_PRES TD9635_ROCI NEUMANN_LAT NEUMANN_LON NEUMANN_CLASS NEUMANN_WIND NEUMANN_PRES MLC_LAT MLC_LON MLC_CLASS MLC_WIND MLC_PRES USA_GUST BOM_GUST BOM_GUST_PER REUNION_GUST REUNION_GUST_PER USA_SEAHGT USA_SEARAD_NE USA_SEARAD_SE USA_SEARAD_SW USA_SEARAD_NW STORM_SPEED STORM_DIR
1913211N22089 1913 34 NI BB NOT_NAMED 1913-07-30 00:00:00 TS 21.7000 88.5000 main 0 0 _________O____ -1 21.7000 88.5000 TC 64 3 282
1913211N22089 1913 34 NI BB NOT_NAMED 1913-07-30 03:00:00 TS 21.7334 88.3350 main 0 0 _________PO___ -1 21.7501 88.2525 TC 55 21.7000 88.5000 4 4 282
1913211N22089 1913 34 NI BB NOT_NAMED 1913-07-30 06:00:00 TS 21.7802 88.0926 main 10 0 _________OP___ -1 21.8000 88.0000 TC 47 21.7505 88.2315 4 5 282
1913211N22089 1913 34 NI BB NOT_NAMED 1913-07-30 09:00:00 TS 21.8289 87.8401 main 0 0 _________PP___ -1 21.8500 87.7425 TC 38 21.8007 87.9702 4 5 282
1913211N22089 1913 34 NI BB NOT_NAMED 1913-07-30 12:00:00 TS 21.8752 87.6120 main 0 0 _________OP___ -1 21.9000 87.5000 TC 30 21.8505 87.7239 4 4 283
1913211N22089 1913 34 NI BB NOT_NAMED 1913-07-30 15:00:00 TS 21.9250 87.4000 main 0 0 _________PO___ -1 21.9499 87.3000 TC 30 21.9000 87.5000 1 4 285
1913211N22089 1913 34 NI BB NOT_NAMED 1913-07-30 18:00:00 TS 21.9747 87.2001 main 0 0 _________OP___ -1 22.0000 87.1000 TC 30 21.9495 87.3002 1 4 285
1913211N22089 1913 34 NI BB NOT_NAMED 1913-07-30 21:00:00 TS 22.0245 86.9911 main 0 0 _________PP___ -1 22.0499 86.8800 TC 30 21.9992 87.1023 1 4 283
1913211N22089 1913 34 NI BB NOT_NAMED 1913-07-31 00:00:00 TS 22.0747 86.7391 main 0 0 _________OP___ -1 22.1000 86.6000 TC 30 22.0493 86.8783 1 5 281
1913211N22089 1913 34 NI BB NOT_NAMED 1913-07-31 03:00:00 TS 22.1250 86.4150 main 0 0 _________PO___ -1 22.1500 86.2300 TC 30 22.1000 86.6000 1 7 278
1913211N22089 1913 34 NI BB NOT_NAMED 1913-07-31 06:00:00 TS 22.1752 86.0122 main 0 0 _________OP___ -1 22.2000 85.8000 TC 30 22.1504 86.2244 1 8 277
1913211N22089 1913 34 NI BB NOT_NAMED 1913-07-31 09:00:00 TS 22.2253 85.5725 main 0 0 _________PP___ -1 22.2500 85.3500 TC 30 22.2006 85.7950 1 8 277
1913211N22089 1913 34 NI BB NOT_NAMED 1913-07-31 12:00:00 TS 22.2752 85.1216 main 0 0 _________OP___ -1 22.3000 84.9000 TC 30 22.2504 85.3431 1 8 277
1913211N22089 1913 34 NI BB NOT_NAMED 1913-07-31 15:00:00 TS 22.3249 84.6925 main 0 0 _________PO___ -1 22.3499 84.4850 TC 30 22.3000 84.9000 1 8 277
1913211N22089 1913 34 NI BB NOT_NAMED 1913-07-31 18:00:00 TS 22.3728 84.3012 main 0 0 _________OP___ -1 22.4000 84.1000 TC 30 22.3456 84.5024 1 7 278
1913211N22089 1913 34 NI BB NOT_NAMED 1913-07-31 21:00:00 TS 22.4210 83.9311 main 0 0 _________PP___ -1 22.4499 83.7425 TC 30 22.3921 84.1198 1 7 278
1913211N22089 1913 34 NI BB NOT_NAMED 1913-08-01 00:00:00 TS 22.4713 83.5762 main 0 0 _________OP___ -1 22.5000 83.4000 TC 30 22.4426 83.7524 1 7 279
1913211N22089 1913 34 NI BB NOT_NAMED 1913-08-01 03:00:00 TS 22.5212 83.2212 main 0 0 _________PO___ -1 22.5425 83.0424 TC 30 22.5000 83.4000 1 7 280
1913211N22089 1913 34 NI BB NOT_NAMED 1913-08-01 06:00:00 TS 22.5838 82.8742 main 0 0 _________OP___ -1 22.6000 82.7000 TC 30 22.5676 83.0485 1 6 284
1913211N22089 1913 34 NI BB NOT_NAMED 1913-08-01 09:00:00 TS 22.6711 82.5488 main 0 0 _________PP___ -1 22.6999 82.3851 TC 30 22.6423 82.7125 1 6 287
1913211N22089 1913 34 NI BB NOT_NAMED 1913-08-01 12:00:00 TS 22.7604 82.2477 main 0 0 _________OP___ -1 22.8000 82.1000 TC 30 22.7208 82.3953 1 6 286
1913211N22089 1913 34 NI BB NOT_NAMED 1913-08-01 15:00:00 TS 22.8250 81.9712 main 0 0 _________PO___ -1 22.8499 81.8424 TC 30 22.8000 82.1000 1 5 285
1913211N22089 1913 34 NI BB NOT_NAMED 1913-08-01 18:00:00 TS 22.8870 81.7304 main 0 0 _________OP___ -1 22.9000 81.6000 TC 30 22.8773 81.8282 1 5 288
1913211N22089 1913 34 NI BB NOT_NAMED 1913-08-01 21:00:00 TS 22.9667 81.4861 main 0 0 _________PP___ -1 22.9876 81.3526 TC 30 22.9527 81.5751 1 5 291
1913211N22089 1913 34 NI BB NOT_NAMED 1913-08-02 00:00:00 TS 23.0512 81.2563 main 0 0 _________OP___ -1 23.1000 81.1000 TC 30 23.0268 81.3345 1 4 291
1913211N22089 1913 34 NI BB NOT_NAMED 1913-08-02 03:00:00 NR 23.1000 81.1000 main 0 __________O___ -1 TC 23.1000 81.1000 1 3 289

IBTrACS Databaseについて

本データベースは、米国NOAAが公開する1842年以降の世界の熱帯低気圧のベストトラックデータアーカイブInternational Best Track Archive for Climate Stewardship (IBTrACS)を、ウェブで閲覧しやすい形式に変換したものです。

最終更新日:2021-11-26